Flight Track Log - Related Links

Times and Time Zones

All times are in EDT time to prevent confusion due to time zone crossing. See the TCF3559 flight status page for this flight to view local times or setup timezone preferences in your user account.

Time Position Orientation Groundspeed Altitude Reporting Facility
EDT Latitude Longitude Course Direction KTS MPH feet Rate Location/Type
Tue 05:09:10 PM 40.0028 -82.9733 280° West 167 192 3,200  Level Indianapolis Center
Tue 05:10:12 PM 40.0106 -83.0592 277° West 217 250 4,900 2,468 Climbing Indianapolis Center
Tue 05:11:14 PM 40.0197 -83.1522 277° West 254 292 8,300 3,048 Climbing Indianapolis Center
Tue 05:12:00 PM 40.0000 -83.5528 270° West  Level FlightAware Approximate
Tue 05:12:16 PM 40.0142 -83.2450 266° West 261 300 11,200  Level Indianapolis Center
Tue 05:13:00 PM 40.0000 -83.6872 270° West  Level FlightAware Approximate
Tue 05:13:18 PM 39.9922 -83.3639 256° West 286 329 13,900  Level Indianapolis Center
Tue 05:14:20 PM 39.9603 -83.4614 247° West 295 339 16,400 2,177 Climbing Indianapolis Center
Tue 05:15:22 PM 39.9172 -83.5567 240° Southwest 308 354 18,400 1,935 Climbing Indianapolis Center
Tue 05:16:24 PM 39.8728 -83.6569 240° Southwest 323 372 20,400 1,742 Climbing Indianapolis Center
Tue 05:17:26 PM 39.8178 -83.7806 240° Southwest 336 387 22,000 774 Climbing Indianapolis Center
Tue 05:18:28 PM 39.7686 -83.8914 240° Southwest 349 402 22,000 484 Level Indianapolis Center
Tue 05:19:30 PM 39.7197 -83.9989 239° Southwest 346 398 23,000 1,355 Climbing Indianapolis Center
Tue 05:20:32 PM 39.6717 -84.1083 240° Southwest 345 397 24,800 1,694 Climbing Indianapolis Center
Tue 05:21:34 PM 39.6206 -84.2183 239° Southwest 352 405 26,500 1,500 Climbing Indianapolis Center
Tue 05:22:36 PM 39.5717 -84.3306 241° Southwest 355 409 27,900 1,355 Climbing Indianapolis Center
Tue 05:23:38 PM 39.5181 -84.4444 239° Southwest 366 421 29,300 1,161 Climbing Indianapolis Center
Tue 05:24:40 PM 39.4658 -84.5594 240° Southwest 369 425 30,300 1,113 Climbing Indianapolis Center
Tue 05:25:42 PM 39.4053 -84.6950 240° Southwest 372 428 31,600 1,306 Climbing Indianapolis Center
Tue 05:26:44 PM 39.3503 -84.8094 238° Southwest 371 427 33,000 1,161 Climbing Indianapolis Center
Tue 05:27:46 PM 39.3014 -84.9169 240° Southwest 361 415 34,000 484 Climbing Indianapolis Center
Tue 05:28:48 PM 39.2503 -85.0286 239° Southwest 359 413 34,000  Level Indianapolis Center
Tue 05:29:50 PM 39.1981 -85.1406 239° Southwest 361 415 34,000  Level Indianapolis Center
Tue 05:30:52 PM 39.1372 -85.2717 239° Southwest 362 417 34,000  Level Indianapolis Center
Tue 05:31:54 PM 39.0850 -85.3833 239° Southwest 361 415 34,000  Level Indianapolis Center
Tue 05:32:56 PM 39.0319 -85.4975 239° Southwest 366 421 34,000  Level Indianapolis Center
Tue 05:33:58 PM 38.9775 -85.6114 238° Southwest 371 427 34,000  Level Indianapolis Center
Tue 05:35:00 PM 38.9244 -85.7222 238° Southwest 365 420 34,000  Level Indianapolis Center
Tue 05:36:02 PM 38.8714 -85.8350 239° Southwest 365 420 34,000  Level Indianapolis Center
Tue 05:37:04 PM 38.8106 -85.9622 238° Southwest 366 421 34,000  Level Indianapolis Center
Tue 05:38:06 PM 38.7564 -86.0761 239° Southwest 372 428 34,000  Level Indianapolis Center
Tue 05:39:08 PM 38.7033 -86.1886 239° Southwest 368 423 34,000  Level Indianapolis Center
Tue 05:40:10 PM 38.6500 -86.3011 239° Southwest 368 423 34,000  Level Indianapolis Center
Tue 05:41:12 PM 38.5947 -86.4125 238° Southwest 367 422 34,000  Level Indianapolis Center
Tue 05:42:14 PM 38.5283 -86.5142 230° Southwest 372 428 34,000  Level Indianapolis Center
Tue 05:43:16 PM 38.4569 -86.6111 227° Southwest 373 429 34,000  Level Indianapolis Center
Tue 05:44:18 PM 38.3878 -86.7092 228° Southwest 370 426 34,000  Level Indianapolis Center
Tue 05:45:20 PM 38.3025 -86.8275 227° Southwest 372 428 34,000  Level Indianapolis Center
Tue 05:46:22 PM 38.2308 -86.9292 228° Southwest 376 433 34,000  Level Indianapolis Center
Tue 05:47:24 PM 38.1589 -87.0292 228° Southwest 374 430 34,000  Level Indianapolis Center
Tue 05:48:26 PM 38.0881 -87.1286 228° Southwest 373 429 34,000  Level Indianapolis Center
Tue 05:49:28 PM 38.0175 -87.2269 228° Southwest 374 430 34,000  Level Indianapolis Center
Tue 05:50:30 PM 37.9464 -87.3256 228° Southwest 375 432 34,000  Level Indianapolis Center
Tue 05:51:32 PM 37.8761 -87.4222 227° Southwest 372 428 34,000  Level Indianapolis Center
Tue 05:52:34 PM 37.8058 -87.5206 228° Southwest 373 429 34,000  Level Indianapolis Center
Tue 05:53:36 PM 37.7306 -87.6228 227° Southwest 368 423 34,000  Level Indianapolis Center
Tue 05:54:37 PM 37.6597 -87.7192 227° Southwest 371 427 34,000  Level Indianapolis Center
Tue 05:55:34 PM 37.6017 -87.8156 233° Southwest 369 425 34,000  Level Memphis Center
Tue 05:56:34 PM 37.5286 -87.9094 226° Southwest 374 430 34,000  Level Memphis Center
Tue 05:57:34 PM 37.4575 -88.0031 226° Southwest 374 430 34,000  Level Memphis Center
Tue 05:58:34 PM 37.3714 -88.0839 217° Southwest 380 437 34,000  Level Memphis Center
Tue 05:59:34 PM 37.2894 -88.1644 218° Southwest 380 437 34,000  Level Memphis Center
Tue 06:00:34 PM 37.2056 -88.2447 217° Southwest 385 443 34,000  Level Memphis Center
Tue 06:01:34 PM 37.1214 -88.3250 217° Southwest 390 449 34,000  Level Memphis Center
Tue 06:02:34 PM 37.0394 -88.4025 217° Southwest 385 443 34,000  Level Memphis Center
Tue 06:03:34 PM 36.9553 -88.4825 217° Southwest 385 443 34,000  Level Memphis Center
Tue 06:04:34 PM 36.8750 -88.5622 218° Southwest 385 443 34,000  Level Memphis Center
Tue 06:05:34 PM 36.7908 -88.6419 217° Southwest 385 443 34,000  Level Memphis Center
Tue 06:06:34 PM 36.7064 -88.7186 216° Southwest 385 443 34,000  Level Memphis Center
Tue 06:07:34 PM 36.6239 -88.7953 217° Southwest 385 443 34,000  Level Memphis Center
Tue 06:08:34 PM 36.5417 -88.8744 218° Southwest 385 443 34,000  Level Memphis Center
Tue 06:09:34 PM 36.4550 -88.9508 215° Southwest 385 443 34,000  Level Memphis Center
Tue 06:10:34 PM 36.3703 -89.0297 217° Southwest 385 443 34,000  Level Memphis Center
Tue 06:11:34 PM 36.2753 -89.1161 216° Southwest 385 443 34,000  Level Memphis Center
Tue 06:12:34 PM 36.1886 -89.1997 218° Southwest 390 449 34,000  Level Memphis Center
Tue 06:13:34 PM 36.1039 -89.2806 218° Southwest 390 449 34,000  Level Memphis Center
Tue 06:14:34 PM 36.0211 -89.3586 217° Southwest 390 449 34,000  Level Memphis Center
Tue 06:15:34 PM 35.9361 -89.4367 217° Southwest 390 449 34,000  Level Memphis Center
Tue 06:16:34 PM 35.8514 -89.5169 218° Southwest 390 449 34,000  Level Memphis Center
Tue 06:17:34 PM 35.7683 -89.5947 217° Southwest 390 449 34,000  Level Memphis Center
Tue 06:18:34 PM 35.6811 -89.6719 216° Southwest 390 449 34,000  Level Memphis Center
Tue 06:19:34 PM 35.6003 -89.7494 218° Southwest 390 449 34,000  Level Memphis Center
Tue 06:20:34 PM 35.5153 -89.8239 215° Southwest 385 443 34,000  Level Memphis Center
Tue 06:21:34 PM 35.4300 -89.9036 217° Southwest 390 449 34,000  Level Memphis Center
Tue 06:22:34 PM 35.3425 -89.9803 216° Southwest 390 449 34,000  Level Memphis Center
Tue 06:23:34 PM 35.2594 -90.0594 218° Southwest 390 449 34,000  Level Memphis Center
Tue 06:24:34 PM 35.1719 -90.1361 216° Southwest 390 449 34,000  Level Memphis Center
Tue 06:25:34 PM 35.0886 -90.2125 217° Southwest 390 449 34,000  Level Memphis Center
Tue 06:26:34 PM 35.0053 -90.2861 216° Southwest 384 442 34,000  Level Memphis Center
Tue 06:27:34 PM 34.9178 -90.3622 216° Southwest 384 442 34,000  Level Memphis Center
Tue 06:28:34 PM 34.8342 -90.4456 219° Southwest 384 442 34,000  Level Memphis Center
Tue 06:29:34 PM 34.7464 -90.5264 217° Southwest 389 448 34,000  Level Memphis Center
Tue 06:30:34 PM 34.6628 -90.5969 215° Southwest 387 445 34,000  Level Memphis Center
Tue 06:31:34 PM 34.5772 -90.6750 217° Southwest 387 445 34,000  Level Memphis Center
Tue 06:32:34 PM 34.5206 -90.7656 233° Southwest 382 440 34,000  Level Memphis Center
Tue 06:33:34 PM 34.4597 -90.8683 234° Southwest 380 437 34,000  Level Memphis Center
Tue 06:34:34 PM 34.3967 -90.9714 233° Southwest 381 438 34,000  Level Memphis Center
Tue 06:35:34 PM 34.3356 -91.0714 234° Southwest 389 448 34,000  Level Memphis Center
Tue 06:36:34 PM 34.2722 -91.1817 235° Southwest 377 434 34,000  Level Memphis Center
Tue 06:37:34 PM 34.2111 -91.2839 234° Southwest 377 434 34,000  Level Memphis Center
Tue 06:38:34 PM 34.1478 -91.3861 233° Southwest 382 440 34,000  Level Memphis Center
Tue 06:39:34 PM 34.0883 -91.4833 234° Southwest 375 432 34,000  Level Memphis Center
Tue 06:40:34 PM 34.0311 -91.5753 233° Southwest 380 437 34,000  Level Memphis Center
Tue 06:41:34 PM 33.9656 -91.6769 232° Southwest 385 443 34,000  Level Memphis Center
Tue 06:42:34 PM 33.9142 -91.7764 238° Southwest 372 428 34,000  Level Memphis Center
Tue 06:44:31 PM 33.7983 -91.9625 233° Southwest 354 407 34,000  Level Fort Worth Center
Tue 06:45:31 PM 33.7397 -92.0586 234° Southwest 354 407 34,000  Level Fort Worth Center
Tue 06:46:31 PM 33.6728 -92.1525 229° Southwest 354 407 34,000  Level Fort Worth Center
Tue 06:47:31 PM 33.5767 -92.1956 200° South 359 413 34,000  Level Fort Worth Center
Tue 06:48:31 PM 33.4694 -92.2267 194° South 375 432 34,000  Level Fort Worth Center
Tue 06:49:31 PM 33.3642 -92.2578 194° South 380 437 34,000  Level Fort Worth Center
Tue 06:50:31 PM 33.2592 -92.2914 195° South 392 451 34,000 -200 Level Fort Worth Center
Tue 06:51:31 PM 33.1519 -92.3247 195° South 397 457 33,600 -800 Descending Fort Worth Center
Tue 06:52:31 PM 33.0447 -92.3556 194° South 397 457 32,400 -800 Descending Fort Worth Center
Tue 06:53:31 PM 32.9356 -92.3892 194° South 397 457 32,000 -200 Descending Fort Worth Center
Tue 06:54:31 PM 32.8219 -92.4225 194° South 409 471 32,000  Level Fort Worth Center
Tue 06:55:31 PM 32.7044 -92.4539 193° South 409 471 32,000  Level Fort Worth Center
Tue 06:56:31 PM 32.5950 -92.4869 194° South 409 471 32,000  Level Fort Worth Center
Tue 06:58:10 PM 32.4256 -92.5428 196° South 405 466 32,000  Level Houston Center
Tue 06:59:13 PM 32.3147 -92.5739 193° South 411 473 32,000  Level Houston Center
Tue 07:00:15 PM 32.1839 -92.6144 195° South 408 470 32,000  Level Houston Center
Tue 07:01:17 PM 32.0753 -92.6469 194° South 405 466 32,000  Level Houston Center
Tue 07:02:19 PM 31.9667 -92.6817 195° South 405 466 32,000  Level Houston Center
Tue 07:03:21 PM 31.8847 -92.7606 219° Southwest 381 438 32,000  Level Houston Center
Tue 07:04:23 PM 31.8044 -92.8403 220° Southwest 379 436 32,000  Level Houston Center
Tue 07:05:25 PM 31.7228 -92.9186 219° Southwest 379 436 32,000  Level Houston Center
Tue 07:06:27 PM 31.6247 -93.0136 220° Southwest 383 441 32,000  Level Houston Center
Tue 07:07:29 PM 31.5406 -93.0944 219° Southwest 390 449 32,000  Level Houston Center
Tue 07:08:32 PM 31.4536 -93.1783 219° Southwest 403 464 32,000  Level Houston Center
Tue 07:09:34 PM 31.3653 -93.2617 219° Southwest 407 468 32,000  Level Houston Center
Tue 07:10:36 PM 31.2789 -93.3458 220° Southwest 401 461 32,000  Level Houston Center
Tue 07:11:38 PM 31.1775 -93.4419 219° Southwest 399 459 32,000 -435 Level Houston Center
Tue 07:12:40 PM 31.0908 -93.5233 219° Southwest 399 459 31,100 -919 Descending Houston Center
Tue 07:13:42 PM 31.0036 -93.6078 220° Southwest 407 468 30,100 -1,210 Descending Houston Center
Tue 07:14:44 PM 30.9131 -93.6928 219° Southwest 418 481 28,600 -1,790 Descending Houston Center
Tue 07:15:46 PM 30.8203 -93.7794 219° Southwest 427 491 26,400 -2,274 Descending Houston Center
Tue 07:16:48 PM 30.7114 -93.8828 219° Southwest 424 488 23,900 -2,208 Descending Houston Center
Tue 07:17:51 PM 30.6244 -93.9661 220° Southwest 413 475 21,800 -1,968 Descending Houston Center
Tue 07:18:53 PM 30.5375 -94.0467 219° Southwest 405 466 19,800 -1,984 Descending Houston Center
Tue 07:19:55 PM 30.4522 -94.1258 219° Southwest 399 459 17,700 -2,077 Descending Houston Center
Tue 07:21:03 PM 30.3444 -94.2267 219° Southwest 388 447 15,300 -2,016 Descending Houston Center
Tue 07:21:57 PM 30.2750 -94.2914 219° Southwest 373 429 13,600 -1,707 Descending Houston Center
Tue 07:22:59 PM 30.2047 -94.3661 223° Southwest 313 360 12,000 -1,381 Descending Houston Center
Tue 07:24:03 PM 30.1811 -94.4625 254° West 321 369 10,700 -984 Descending Houston Center
Tue 07:25:01 PM 30.1636 -94.5672 259° West 316 364 10,000 -353 Descending Houston Center
Tue 07:26:02 PM 30.1461 -94.6686 259° West 318 366 10,000  Level Houston Center
Tue 07:27:03 PM 30.1286 -94.7700 259° West 320 368 10,000 -443 Level Houston Center
Tue 07:28:04 PM 30.1119 -94.8617 258° West 273 314 9,100 -1,359 Descending Houston Center
Tue 07:29:11 PM 30.1044 -94.9592 265° West 277 319 7,100 -1,453 Descending Houston Center
Tue 07:30:12 PM 30.1047 -95.0508 270° West 276 318 6,000 -524 Descending Houston Center
Tue 07:31:17 PM 30.1061 -95.1433 271° West 272 313 6,000  Level Houston Center
Tue 07:32:14 PM 30.1064 -95.2269 270° West 273 314 6,000  Level Houston Center
Tue 07:33:10 PM 30.1056 -95.3092 269° West 273 314 6,000 -205 Level Houston Center
Tue 07:34:11 PM 30.1069 -95.3936 271° West 267 307 5,600 -1,172 Descending Houston Center
Tue 07:35:18 PM 30.1053 -95.4903 269° West 264 304 3,500 -1,279 Descending Houston Center
Tue 07:36:13 PM 30.0931 -95.5642 259° West 271 312 3,000 -229 Descending Houston Center
Tue 07:37:29 PM 30.0281 -95.5247 152° Southeast 260 299 3,000  Level Houston Center

Login

Don't have an account? Register now (free) for customized features, flight alerts, and more!